sensor_id;sensor_type;location;lat;lon;timestamp;P1;durP1;ratioP1;P2;durP2;ratioP2
77978;SDS011;67169;50.268;8.694;2023-07-09T00:00:53;4.15;;;2.42;;
77978;SDS011;67169;50.268;8.694;2023-07-09T00:03:19;4.55;;;1.98;;
77978;SDS011;67169;50.268;8.694;2023-07-09T00:05:46;6.22;;;2.03;;
77978;SDS011;67169;50.268;8.694;2023-07-09T00:08:16;3.97;;;2.10;;
77978;SDS011;67169;50.268;8.694;2023-07-09T00:10:51;4.63;;;2.00;;
77978;SDS011;67169;50.268;8.694;2023-07-09T00:13:18;4.57;;;2.17;;
77978;SDS011;67169;50.268;8.694;2023-07-09T00:15:44;3.05;;;1.85;;
77978;SDS011;67169;50.268;8.694;2023-07-09T00:18:12;4.00;;;1.95;;
77978;SDS011;67169;50.268;8.694;2023-07-09T00:20:39;3.75;;;2.15;;
77978;SDS011;67169;50.268;8.694;2023-07-09T00:23:08;4.55;;;2.70;;
77978;SDS011;67169;50.268;8.694;2023-07-09T00:25:38;5.05;;;2.50;;
77978;SDS011;67169;50.268;8.694;2023-07-09T00:28:11;5.82;;;2.25;;
77978;SDS011;67169;50.268;8.694;2023-07-09T00:30:38;3.05;;;2.17;;
77978;SDS011;67169;50.268;8.694;2023-07-09T00:33:06;4.95;;;1.80;;
77978;SDS011;67169;50.268;8.694;2023-07-09T00:35:38;3.63;;;2.40;;
77978;SDS011;67169;50.268;8.694;2023-07-09T00:38:07;3.63;;;1.80;;
77978;SDS011;67169;50.268;8.694;2023-07-09T00:40:44;5.82;;;2.00;;
77978;SDS011;67169;50.268;8.694;2023-07-09T00:43:14;4.70;;;2.33;;
77978;SDS011;67169;50.268;8.694;2023-07-09T00:45:42;3.92;;;2.10;;
77978;SDS011;67169;50.268;8.694;2023-07-09T00:48:10;4.10;;;2.17;;
77978;SDS011;67169;50.268;8.694;2023-07-09T00:50:42;4.32;;;2.03;;
77978;SDS011;67169;50.268;8.694;2023-07-09T00:53:15;5.00;;;2.47;;
77978;SDS011;67169;50.268;8.694;2023-07-09T00:55:46;3.95;;;1.90;;
77978;SDS011;67169;50.268;8.694;2023-07-09T00:58:18;2.80;;;1.80;;
77978;SDS011;67169;50.268;8.694;2023-07-09T01:03:21;3.95;;;2.65;;
77978;SDS011;67169;50.268;8.694;2023-07-09T01:05:53;4.15;;;2.03;;
77978;SDS011;67169;50.268;8.694;2023-07-09T01:08:20;2.35;;;1.80;;
77978;SDS011;67169;50.268;8.694;2023-07-09T01:10:47;3.38;;;2.63;;
77978;SDS011;67169;50.268;8.694;2023-07-09T01:13:14;2.97;;;1.92;;
77978;SDS011;67169;50.268;8.694;2023-07-09T01:15:43;3.63;;;2.22;;
77978;SDS011;67169;50.268;8.694;2023-07-09T01:18:11;3.95;;;2.10;;
77978;SDS011;67169;50.268;8.694;2023-07-09T01:20:38;3.58;;;2.13;;
77978;SDS011;67169;50.268;8.694;2023-07-09T01:23:07;4.28;;;1.98;;
77978;SDS011;67169;50.268;8.694;2023-07-09T01:25:33;5.05;;;2.60;;
77978;SDS011;67169;50.268;8.694;2023-07-09T01:28:01;4.50;;;2.00;;
77978;SDS011;67169;50.268;8.694;2023-07-09T01:30:29;5.38;;;1.90;;
77978;SDS011;67169;50.268;8.694;2023-07-09T01:32:59;4.05;;;2.25;;
77978;SDS011;67169;50.268;8.694;2023-07-09T01:35:27;2.92;;;1.85;;
77978;SDS011;67169;50.268;8.694;2023-07-09T01:37:55;4.18;;;1.67;;
77978;SDS011;67169;50.268;8.694;2023-07-09T01:40:24;3.17;;;1.98;;
77978;SDS011;67169;50.268;8.694;2023-07-09T01:42:53;8.25;;;2.60;;
77978;SDS011;67169;50.268;8.694;2023-07-09T01:45:23;2.58;;;1.95;;
77978;SDS011;67169;50.268;8.694;2023-07-09T01:47:50;7.70;;;2.10;;
77978;SDS011;67169;50.268;8.694;2023-07-09T01:50:18;5.57;;;2.30;;
77978;SDS011;67169;50.268;8.694;2023-07-09T01:52:45;3.78;;;1.98;;
77978;SDS011;67169;50.268;8.694;2023-07-09T01:55:14;3.30;;;2.20;;
77978;SDS011;67169;50.268;8.694;2023-07-09T01:57:44;2.70;;;1.88;;
77978;SDS011;67169;50.268;8.694;2023-07-09T02:00:12;4.22;;;2.25;;
77978;SDS011;67169;50.268;8.694;2023-07-09T02:02:41;5.25;;;2.22;;
77978;SDS011;67169;50.268;8.694;2023-07-09T02:05:09;5.85;;;2.88;;
77978;SDS011;67169;50.268;8.694;2023-07-09T02:07:37;3.55;;;2.65;;
77978;SDS011;67169;50.268;8.694;2023-07-09T02:10:04;4.28;;;2.20;;
77978;SDS011;67169;50.268;8.694;2023-07-09T02:12:31;4.05;;;1.83;;
77978;SDS011;67169;50.268;8.694;2023-07-09T02:14:59;4.53;;;2.00;;
77978;SDS011;67169;50.268;8.694;2023-07-09T02:17:26;4.03;;;2.22;;
77978;SDS011;67169;50.268;8.694;2023-07-09T02:19:53;3.13;;;1.88;;
77978;SDS011;67169;50.268;8.694;2023-07-09T02:22:19;4.43;;;2.03;;
77978;SDS011;67169;50.268;8.694;2023-07-09T02:24:46;3.92;;;2.10;;
77978;SDS011;67169;50.268;8.694;2023-07-09T02:27:15;3.65;;;2.10;;
77978;SDS011;67169;50.268;8.694;2023-07-09T02:29:42;3.95;;;2.15;;
77978;SDS011;67169;50.268;8.694;2023-07-09T02:32:10;4.53;;;2.00;;
77978;SDS011;67169;50.268;8.694;2023-07-09T02:34:42;3.08;;;1.92;;
77978;SDS011;67169;50.268;8.694;2023-07-09T02:37:14;3.70;;;1.95;;
77978;SDS011;67169;50.268;8.694;2023-07-09T02:39:41;3.47;;;1.85;;
77978;SDS011;67169;50.268;8.694;2023-07-09T02:42:08;4.30;;;2.10;;
77978;SDS011;67169;50.268;8.694;2023-07-09T02:44:36;4.88;;;2.50;;
77978;SDS011;67169;50.268;8.694;2023-07-09T02:47:03;3.17;;;2.35;;
77978;SDS011;67169;50.268;8.694;2023-07-09T02:49:31;3.20;;;2.40;;
77978;SDS011;67169;50.268;8.694;2023-07-09T02:51:58;4.20;;;1.90;;
77978;SDS011;67169;50.268;8.694;2023-07-09T02:54:24;4.07;;;2.20;;
77978;SDS011;67169;50.268;8.694;2023-07-09T02:56:51;4.03;;;2.17;;
77978;SDS011;67169;50.268;8.694;2023-07-09T02:59:17;3.90;;;2.55;;
77978;SDS011;67169;50.268;8.694;2023-07-09T03:01:44;4.97;;;2.35;;
77978;SDS011;67169;50.268;8.694;2023-07-09T03:06:40;5.22;;;2.47;;
77978;SDS011;67169;50.268;8.694;2023-07-09T03:09:07;3.75;;;2.65;;
77978;SDS011;67169;50.268;8.694;2023-07-09T03:11:34;3.45;;;2.58;;
77978;SDS011;67169;50.268;8.694;2023-07-09T03:14:02;3.03;;;1.90;;
77978;SDS011;67169;50.268;8.694;2023-07-09T03:16:29;5.60;;;3.83;;
77978;SDS011;67169;50.268;8.694;2023-07-09T03:18:58;5.22;;;2.90;;
77978;SDS011;67169;50.268;8.694;2023-07-09T03:21:26;3.00;;;2.30;;
77978;SDS011;67169;50.268;8.694;2023-07-09T03:23:56;4.07;;;2.50;;
77978;SDS011;67169;50.268;8.694;2023-07-09T03:26:23;4.57;;;2.95;;
77978;SDS011;67169;50.268;8.694;2023-07-09T03:28:51;4.93;;;2.67;;
77978;SDS011;67169;50.268;8.694;2023-07-09T03:31:18;4.13;;;2.70;;
77978;SDS011;67169;50.268;8.694;2023-07-09T03:33:45;3.92;;;2.60;;
77978;SDS011;67169;50.268;8.694;2023-07-09T03:36:12;5.95;;;2.75;;
77978;SDS011;67169;50.268;8.694;2023-07-09T03:38:39;5.90;;;2.92;;
77978;SDS011;67169;50.268;8.694;2023-07-09T03:41:07;4.45;;;3.13;;
77978;SDS011;67169;50.268;8.694;2023-07-09T03:43:34;6.22;;;3.90;;
77978;SDS011;67169;50.268;8.694;2023-07-09T03:46:00;4.40;;;2.80;;
77978;SDS011;67169;50.268;8.694;2023-07-09T03:48:27;5.22;;;2.95;;
77978;SDS011;67169;50.268;8.694;2023-07-09T03:50:54;5.15;;;2.97;;
77978;SDS011;67169;50.268;8.694;2023-07-09T03:53:21;4.40;;;2.90;;
77978;SDS011;67169;50.268;8.694;2023-07-09T03:55:51;3.97;;;2.88;;
77978;SDS011;67169;50.268;8.694;2023-07-09T03:58:19;3.60;;;2.75;;
77978;SDS011;67169;50.268;8.694;2023-07-09T04:00:46;5.07;;;3.28;;
77978;SDS011;67169;50.268;8.694;2023-07-09T04:03:13;6.13;;;3.08;;
77978;SDS011;67169;50.268;8.694;2023-07-09T04:05:39;5.20;;;2.65;;
77978;SDS011;67169;50.268;8.694;2023-07-09T04:08:06;3.53;;;2.55;;
77978;SDS011;67169;50.268;8.694;2023-07-09T04:10:32;3.40;;;2.90;;
77978;SDS011;67169;50.268;8.694;2023-07-09T04:12:59;5.25;;;2.70;;
77978;SDS011;67169;50.268;8.694;2023-07-09T04:15:27;5.65;;;2.53;;
77978;SDS011;67169;50.268;8.694;2023-07-09T04:17:53;3.88;;;2.55;;
77978;SDS011;67169;50.268;8.694;2023-07-09T04:20:21;4.63;;;2.70;;
77978;SDS011;67169;50.268;8.694;2023-07-09T04:22:48;4.18;;;2.72;;
77978;SDS011;67169;50.268;8.694;2023-07-09T04:25:15;7.47;;;2.72;;
77978;SDS011;67169;50.268;8.694;2023-07-09T04:27:42;3.45;;;2.40;;
77978;SDS011;67169;50.268;8.694;2023-07-09T04:30:09;4.60;;;2.63;;
77978;SDS011;67169;50.268;8.694;2023-07-09T04:32:38;5.55;;;2.80;;
77978;SDS011;67169;50.268;8.694;2023-07-09T04:35:05;5.60;;;2.67;;
77978;SDS011;67169;50.268;8.694;2023-07-09T04:37:32;3.80;;;2.60;;
77978;SDS011;67169;50.268;8.694;2023-07-09T04:39:59;5.80;;;2.75;;
77978;SDS011;67169;50.268;8.694;2023-07-09T04:42:25;5.85;;;3.03;;
77978;SDS011;67169;50.268;8.694;2023-07-09T04:44:52;5.93;;;3.03;;
77978;SDS011;67169;50.268;8.694;2023-07-09T04:47:18;5.60;;;2.80;;
77978;SDS011;67169;50.268;8.694;2023-07-09T04:49:46;6.22;;;3.15;;
77978;SDS011;67169;50.268;8.694;2023-07-09T04:52:13;6.72;;;2.97;;
77978;SDS011;67169;50.268;8.694;2023-07-09T04:54:40;5.15;;;2.95;;
77978;SDS011;67169;50.268;8.694;2023-07-09T04:57:09;5.55;;;2.55;;
77978;SDS011;67169;50.268;8.694;2023-07-09T04:59:36;4.85;;;2.60;;
77978;SDS011;67169;50.268;8.694;2023-07-09T05:02:03;4.10;;;2.85;;
77978;SDS011;67169;50.268;8.694;2023-07-09T05:04:30;4.80;;;2.70;;
77978;SDS011;67169;50.268;8.694;2023-07-09T05:06:58;6.45;;;3.60;;
77978;SDS011;67169;50.268;8.694;2023-07-09T05:09:25;5.13;;;3.20;;
77978;SDS011;67169;50.268;8.694;2023-07-09T05:11:51;5.80;;;2.85;;
77978;SDS011;67169;50.268;8.694;2023-07-09T05:14:18;4.93;;;3.25;;
77978;SDS011;67169;50.268;8.694;2023-07-09T05:16:45;8.70;;;3.95;;
77978;SDS011;67169;50.268;8.694;2023-07-09T05:19:12;5.75;;;3.58;;
77978;SDS011;67169;50.268;8.694;2023-07-09T05:21:38;5.80;;;3.45;;
77978;SDS011;67169;50.268;8.694;2023-07-09T05:24:07;6.18;;;3.47;;
77978;SDS011;67169;50.268;8.694;2023-07-09T05:26:33;5.30;;;3.40;;
77978;SDS011;67169;50.268;8.694;2023-07-09T05:29:02;4.75;;;3.53;;
77978;SDS011;67169;50.268;8.694;2023-07-09T05:31:30;6.18;;;4.30;;
77978;SDS011;67169;50.268;8.694;2023-07-09T05:33:56;7.07;;;3.95;;
77978;SDS011;67169;50.268;8.694;2023-07-09T05:36:23;7.63;;;3.58;;
77978;SDS011;67169;50.268;8.694;2023-07-09T05:38:50;7.97;;;3.75;;
77978;SDS011;67169;50.268;8.694;2023-07-09T05:41:20;6.88;;;3.63;;
77978;SDS011;67169;50.268;8.694;2023-07-09T05:43:47;6.38;;;3.47;;
77978;SDS011;67169;50.268;8.694;2023-07-09T05:46:15;5.97;;;3.53;;
77978;SDS011;67169;50.268;8.694;2023-07-09T05:48:42;6.35;;;3.53;;
77978;SDS011;67169;50.268;8.694;2023-07-09T05:51:11;7.38;;;3.42;;
77978;SDS011;67169;50.268;8.694;2023-07-09T05:53:41;7.57;;;3.88;;
77978;SDS011;67169;50.268;8.694;2023-07-09T05:56:08;6.28;;;3.42;;
77978;SDS011;67169;50.268;8.694;2023-07-09T05:58:37;6.38;;;4.13;;
77978;SDS011;67169;50.268;8.694;2023-07-09T06:01:03;6.43;;;4.20;;
77978;SDS011;67169;50.268;8.694;2023-07-09T06:03:30;7.75;;;4.03;;
77978;SDS011;67169;50.268;8.694;2023-07-09T06:05:58;8.38;;;3.70;;
77978;SDS011;67169;50.268;8.694;2023-07-09T06:08:25;6.28;;;3.53;;
77978;SDS011;67169;50.268;8.694;2023-07-09T06:10:53;7.80;;;3.97;;
77978;SDS011;67169;50.268;8.694;2023-07-09T06:13:21;5.75;;;3.47;;
77978;SDS011;67169;50.268;8.694;2023-07-09T06:15:50;6.57;;;3.20;;
77978;SDS011;67169;50.268;8.694;2023-07-09T06:18:18;6.90;;;4.45;;
77978;SDS011;67169;50.268;8.694;2023-07-09T06:20:46;6.85;;;3.80;;
77978;SDS011;67169;50.268;8.694;2023-07-09T06:23:14;5.88;;;3.33;;
77978;SDS011;67169;50.268;8.694;2023-07-09T06:25:43;4.95;;;3.22;;
77978;SDS011;67169;50.268;8.694;2023-07-09T06:28:13;6.25;;;3.38;;
77978;SDS011;67169;50.268;8.694;2023-07-09T06:30:40;4.82;;;3.70;;
77978;SDS011;67169;50.268;8.694;2023-07-09T06:33:08;9.93;;;4.50;;
77978;SDS011;67169;50.268;8.694;2023-07-09T06:35:36;5.18;;;3.70;;
77978;SDS011;67169;50.268;8.694;2023-07-09T06:38:03;8.02;;;4.05;;
77978;SDS011;67169;50.268;8.694;2023-07-09T06:40:29;5.80;;;3.40;;
77978;SDS011;67169;50.268;8.694;2023-07-09T06:42:56;5.85;;;3.42;;
77978;SDS011;67169;50.268;8.694;2023-07-09T06:45:23;5.63;;;4.20;;
77978;SDS011;67169;50.268;8.694;2023-07-09T06:47:52;5.40;;;3.40;;
77978;SDS011;67169;50.268;8.694;2023-07-09T06:50:20;6.07;;;3.60;;
77978;SDS011;67169;50.268;8.694;2023-07-09T06:52:47;6.00;;;3.47;;
77978;SDS011;67169;50.268;8.694;2023-07-09T06:55:13;5.45;;;3.45;;
77978;SDS011;67169;50.268;8.694;2023-07-09T06:57:42;4.80;;;3.88;;
77978;SDS011;67169;50.268;8.694;2023-07-09T07:00:10;4.82;;;3.30;;
77978;SDS011;67169;50.268;8.694;2023-07-09T07:02:37;7.93;;;3.95;;
77978;SDS011;67169;50.268;8.694;2023-07-09T07:05:04;4.45;;;3.10;;
77978;SDS011;67169;50.268;8.694;2023-07-09T07:07:40;6.03;;;3.25;;
77978;SDS011;67169;50.268;8.694;2023-07-09T07:10:10;7.40;;;3.47;;
77978;SDS011;67169;50.268;8.694;2023-07-09T07:12:45;4.88;;;3.53;;
77978;SDS011;67169;50.268;8.694;2023-07-09T07:15:15;5.97;;;3.28;;
77978;SDS011;67169;50.268;8.694;2023-07-09T07:17:43;7.55;;;3.55;;
77978;SDS011;67169;50.268;8.694;2023-07-09T07:20:11;8.82;;;3.22;;
77978;SDS011;67169;50.268;8.694;2023-07-09T07:22:40;6.25;;;3.53;;
77978;SDS011;67169;50.268;8.694;2023-07-09T07:25:21;6.60;;;3.30;;
77978;SDS011;67169;50.268;8.694;2023-07-09T07:28:05;5.65;;;3.08;;
77978;SDS011;67169;50.268;8.694;2023-07-09T07:30:31;6.75;;;3.30;;
77978;SDS011;67169;50.268;8.694;2023-07-09T07:33:00;7.30;;;3.53;;
77978;SDS011;67169;50.268;8.694;2023-07-09T07:35:26;9.15;;;3.70;;
77978;SDS011;67169;50.268;8.694;2023-07-09T07:37:54;7.25;;;3.30;;
77978;SDS011;67169;50.268;8.694;2023-07-09T07:40:21;5.15;;;3.78;;
77978;SDS011;67169;50.268;8.694;2023-07-09T07:42:47;5.55;;;3.67;;
77978;SDS011;67169;50.268;8.694;2023-07-09T07:45:14;4.00;;;3.20;;
77978;SDS011;67169;50.268;8.694;2023-07-09T07:47:40;6.60;;;3.92;;
77978;SDS011;67169;50.268;8.694;2023-07-09T07:50:07;6.53;;;3.05;;
77978;SDS011;67169;50.268;8.694;2023-07-09T07:52:34;4.55;;;3.50;;
77978;SDS011;67169;50.268;8.694;2023-07-09T07:55:04;6.97;;;3.42;;
77978;SDS011;67169;50.268;8.694;2023-07-09T07:57:31;5.53;;;3.10;;
77978;SDS011;67169;50.268;8.694;2023-07-09T07:59:58;5.57;;;3.70;;
77978;SDS011;67169;50.268;8.694;2023-07-09T08:02:28;6.90;;;3.58;;
77978;SDS011;67169;50.268;8.694;2023-07-09T08:04:54;4.65;;;3.60;;
77978;SDS011;67169;50.268;8.694;2023-07-09T08:07:21;5.68;;;3.22;;
77978;SDS011;67169;50.268;8.694;2023-07-09T08:09:47;5.85;;;3.55;;
77978;SDS011;67169;50.268;8.694;2023-07-09T08:12:15;5.95;;;3.95;;
77978;SDS011;67169;50.268;8.694;2023-07-09T08:14:44;5.85;;;3.13;;
77978;SDS011;67169;50.268;8.694;2023-07-09T08:17:12;7.35;;;3.90;;
77978;SDS011;67169;50.268;8.694;2023-07-09T08:19:45;6.00;;;3.10;;
77978;SDS011;67169;50.268;8.694;2023-07-09T08:22:14;6.72;;;3.05;;
77978;SDS011;67169;50.268;8.694;2023-07-09T08:24:41;5.50;;;3.05;;
77978;SDS011;67169;50.268;8.694;2023-07-09T08:27:08;6.13;;;2.70;;
77978;SDS011;67169;50.268;8.694;2023-07-09T08:29:37;4.55;;;2.78;;
77978;SDS011;67169;50.268;8.694;2023-07-09T08:32:04;4.53;;;2.47;;
77978;SDS011;67169;50.268;8.694;2023-07-09T08:34:31;5.25;;;3.25;;
77978;SDS011;67169;50.268;8.694;2023-07-09T08:36:58;4.78;;;3.38;;
77978;SDS011;67169;50.268;8.694;2023-07-09T08:39:25;4.97;;;2.78;;
77978;SDS011;67169;50.268;8.694;2023-07-09T08:41:52;5.10;;;2.70;;
77978;SDS011;67169;50.268;8.694;2023-07-09T08:44:24;4.07;;;3.05;;
77978;SDS011;67169;50.268;8.694;2023-07-09T08:47:06;4.88;;;2.90;;
77978;SDS011;67169;50.268;8.694;2023-07-09T08:49:40;6.15;;;2.97;;
77978;SDS011;67169;50.268;8.694;2023-07-09T08:52:12;4.78;;;2.90;;
77978;SDS011;67169;50.268;8.694;2023-07-09T08:54:44;5.18;;;3.15;;
77978;SDS011;67169;50.268;8.694;2023-07-09T08:57:16;5.45;;;3.38;;
77978;SDS011;67169;50.268;8.694;2023-07-09T08:59:46;5.78;;;3.10;;
77978;SDS011;67169;50.268;8.694;2023-07-09T09:02:26;4.45;;;2.80;;
77978;SDS011;67169;50.268;8.694;2023-07-09T09:04:59;5.03;;;3.08;;
77978;SDS011;67169;50.268;8.694;2023-07-09T09:07:28;6.53;;;3.15;;
77978;SDS011;67169;50.268;8.694;2023-07-09T09:10:04;5.18;;;2.92;;
77978;SDS011;67169;50.268;8.694;2023-07-09T09:12:33;4.07;;;3.15;;
77978;SDS011;67169;50.268;8.694;2023-07-09T09:15:08;5.20;;;2.95;;
77978;SDS011;67169;50.268;8.694;2023-07-09T09:17:40;4.07;;;2.95;;
77978;SDS011;67169;50.268;8.694;2023-07-09T09:20:08;8.85;;;3.60;;
77978;SDS011;67169;50.268;8.694;2023-07-09T09:22:40;5.00;;;2.83;;
77978;SDS011;67169;50.268;8.694;2023-07-09T09:25:15;4.28;;;2.90;;
77978;SDS011;67169;50.268;8.694;2023-07-09T09:27:47;4.53;;;3.20;;
77978;SDS011;67169;50.268;8.694;2023-07-09T09:30:14;6.28;;;2.83;;
77978;SDS011;67169;50.268;8.694;2023-07-09T09:32:45;4.78;;;3.50;;
77978;SDS011;67169;50.268;8.694;2023-07-09T09:35:14;4.95;;;3.10;;
77978;SDS011;67169;50.268;8.694;2023-07-09T09:37:44;4.20;;;2.97;;
77978;SDS011;67169;50.268;8.694;2023-07-09T09:40:20;7.25;;;3.20;;
77978;SDS011;67169;50.268;8.694;2023-07-09T09:42:49;4.25;;;2.72;;
77978;SDS011;67169;50.268;8.694;2023-07-09T09:45:16;6.32;;;3.13;;
77978;SDS011;67169;50.268;8.694;2023-07-09T09:47:47;4.18;;;3.10;;
77978;SDS011;67169;50.268;8.694;2023-07-09T09:50:15;4.05;;;2.85;;
77978;SDS011;67169;50.268;8.694;2023-07-09T09:52:42;6.20;;;3.28;;
77978;SDS011;67169;50.268;8.694;2023-07-09T09:55:10;6.40;;;3.15;;
77978;SDS011;67169;50.268;8.694;2023-07-09T09:57:39;5.28;;;3.20;;
77978;SDS011;67169;50.268;8.694;2023-07-09T10:00:12;6.82;;;3.00;;
77978;SDS011;67169;50.268;8.694;2023-07-09T10:02:40;4.53;;;3.22;;
77978;SDS011;67169;50.268;8.694;2023-07-09T10:05:10;5.88;;;3.15;;
77978;SDS011;67169;50.268;8.694;2023-07-09T10:07:39;6.65;;;3.15;;
77978;SDS011;67169;50.268;8.694;2023-07-09T10:10:12;4.93;;;3.17;;
77978;SDS011;67169;50.268;8.694;2023-07-09T10:12:42;6.10;;;3.08;;
77978;SDS011;67169;50.268;8.694;2023-07-09T10:15:17;4.80;;;3.00;;
77978;SDS011;67169;50.268;8.694;2023-07-09T10:17:53;6.28;;;3.20;;
77978;SDS011;67169;50.268;8.694;2023-07-09T10:20:25;3.97;;;2.70;;
77978;SDS011;67169;50.268;8.694;2023-07-09T10:23:00;5.55;;;2.55;;
77978;SDS011;67169;50.268;8.694;2023-07-09T10:28:07;4.30;;;2.78;;
77978;SDS011;67169;50.268;8.694;2023-07-09T10:30:49;6.00;;;3.33;;
77978;SDS011;67169;50.268;8.694;2023-07-09T10:33:27;5.80;;;2.92;;
77978;SDS011;67169;50.268;8.694;2023-07-09T10:36:06;3.95;;;2.38;;
77978;SDS011;67169;50.268;8.694;2023-07-09T10:38:45;3.17;;;2.88;;
77978;SDS011;67169;50.268;8.694;2023-07-09T10:41:18;5.43;;;3.00;;
77978;SDS011;67169;50.268;8.694;2023-07-09T10:43:46;3.88;;;2.67;;
77978;SDS011;67169;50.268;8.694;2023-07-09T10:46:16;5.82;;;2.80;;
77978;SDS011;67169;50.268;8.694;2023-07-09T10:48:45;5.30;;;3.10;;
77978;SDS011;67169;50.268;8.694;2023-07-09T10:51:19;5.03;;;3.13;;
77978;SDS011;67169;50.268;8.694;2023-07-09T10:53:50;4.32;;;2.60;;
77978;SDS011;67169;50.268;8.694;2023-07-09T10:56:24;4.00;;;2.70;;
77978;SDS011;67169;50.268;8.694;2023-07-09T10:58:54;4.00;;;2.90;;
77978;SDS011;67169;50.268;8.694;2023-07-09T11:01:29;3.30;;;2.70;;
77978;SDS011;67169;50.268;8.694;2023-07-09T11:04:02;4.95;;;2.92;;
77978;SDS011;67169;50.268;8.694;2023-07-09T11:06:36;4.57;;;2.58;;
77978;SDS011;67169;50.268;8.694;2023-07-09T11:09:11;5.97;;;3.00;;
77978;SDS011;67169;50.268;8.694;2023-07-09T11:11:47;4.18;;;2.50;;
77978;SDS011;67169;50.268;8.694;2023-07-09T11:14:21;4.80;;;2.47;;
77978;SDS011;67169;50.268;8.694;2023-07-09T11:16:52;4.68;;;2.47;;
77978;SDS011;67169;50.268;8.694;2023-07-09T11:19:21;4.68;;;2.72;;
77978;SDS011;67169;50.268;8.694;2023-07-09T11:22:02;4.82;;;2.80;;
77978;SDS011;67169;50.268;8.694;2023-07-09T11:24:33;3.25;;;2.30;;
77978;SDS011;67169;50.268;8.694;2023-07-09T11:27:01;3.65;;;2.60;;
77978;SDS011;67169;50.268;8.694;2023-07-09T11:29:29;3.92;;;2.70;;
77978;SDS011;67169;50.268;8.694;2023-07-09T11:32:06;5.13;;;2.70;;
77978;SDS011;67169;50.268;8.694;2023-07-09T11:34:34;3.45;;;3.00;;
77978;SDS011;67169;50.268;8.694;2023-07-09T11:37:13;8.18;;;3.03;;
77978;SDS011;67169;50.268;8.694;2023-07-09T11:39:43;4.85;;;2.30;;
77978;SDS011;67169;50.268;8.694;2023-07-09T11:42:25;4.68;;;2.83;;
77978;SDS011;67169;50.268;8.694;2023-07-09T11:44:54;5.53;;;2.75;;
77978;SDS011;67169;50.268;8.694;2023-07-09T11:47:27;4.88;;;2.60;;
77978;SDS011;67169;50.268;8.694;2023-07-09T11:50:01;4.95;;;2.63;;
77978;SDS011;67169;50.268;8.694;2023-07-09T11:52:32;3.85;;;2.67;;
77978;SDS011;67169;50.268;8.694;2023-07-09T11:55:14;4.15;;;2.67;;
77978;SDS011;67169;50.268;8.694;2023-07-09T11:57:48;3.97;;;2.28;;
77978;SDS011;67169;50.268;8.694;2023-07-09T12:00:19;4.70;;;2.58;;
77978;SDS011;67169;50.268;8.694;2023-07-09T12:02:46;3.78;;;2.63;;
77978;SDS011;67169;50.268;8.694;2023-07-09T12:05:12;3.95;;;2.53;;
77978;SDS011;67169;50.268;8.694;2023-07-09T12:07:46;7.93;;;2.75;;
77978;SDS011;67169;50.268;8.694;2023-07-09T12:10:16;2.65;;;2.28;;
77978;SDS011;67169;50.268;8.694;2023-07-09T12:12:46;5.50;;;2.67;;
77978;SDS011;67169;50.268;8.694;2023-07-09T12:17:43;4.15;;;2.42;;
77978;SDS011;67169;50.268;8.694;2023-07-09T12:20:19;6.10;;;3.20;;
77978;SDS011;67169;50.268;8.694;2023-07-09T12:22:47;4.93;;;2.70;;
77978;SDS011;67169;50.268;8.694;2023-07-09T12:25:18;5.38;;;3.05;;
77978;SDS011;67169;50.268;8.694;2023-07-09T12:27:48;6.43;;;2.92;;
77978;SDS011;67169;50.268;8.694;2023-07-09T12:30:14;5.50;;;3.00;;
77978;SDS011;67169;50.268;8.694;2023-07-09T12:32:44;5.80;;;2.70;;
77978;SDS011;67169;50.268;8.694;2023-07-09T12:35:14;5.38;;;2.60;;
77978;SDS011;67169;50.268;8.694;2023-07-09T12:37:42;6.70;;;2.63;;
77978;SDS011;67169;50.268;8.694;2023-07-09T12:40:15;3.53;;;2.85;;
77978;SDS011;67169;50.268;8.694;2023-07-09T12:42:46;5.75;;;2.92;;
77978;SDS011;67169;50.268;8.694;2023-07-09T12:45:14;4.15;;;2.75;;
77978;SDS011;67169;50.268;8.694;2023-07-09T12:47:43;3.00;;;2.42;;
77978;SDS011;67169;50.268;8.694;2023-07-09T12:50:17;4.28;;;2.60;;
77978;SDS011;67169;50.268;8.694;2023-07-09T12:52:46;2.58;;;2.28;;
77978;SDS011;67169;50.268;8.694;2023-07-09T12:55:22;6.63;;;2.53;;
77978;SDS011;67169;50.268;8.694;2023-07-09T12:57:50;3.30;;;2.42;;
77978;SDS011;67169;50.268;8.694;2023-07-09T13:00:17;4.03;;;2.60;;
77978;SDS011;67169;50.268;8.694;2023-07-09T13:02:45;4.82;;;2.65;;
77978;SDS011;67169;50.268;8.694;2023-07-09T13:05:20;5.35;;;2.65;;
77978;SDS011;67169;50.268;8.694;2023-07-09T13:07:49;3.97;;;2.80;;
77978;SDS011;67169;50.268;8.694;2023-07-09T13:10:18;5.78;;;2.53;;
77978;SDS011;67169;50.268;8.694;2023-07-09T13:12:50;5.28;;;3.00;;
77978;SDS011;67169;50.268;8.694;2023-07-09T13:15:19;7.13;;;2.60;;
77978;SDS011;67169;50.268;8.694;2023-07-09T13:17:48;4.40;;;2.42;;
77978;SDS011;67169;50.268;8.694;2023-07-09T13:20:14;4.40;;;2.40;;
77978;SDS011;67169;50.268;8.694;2023-07-09T13:22:41;3.97;;;2.70;;
77978;SDS011;67169;50.268;8.694;2023-07-09T13:25:09;5.38;;;2.80;;
77978;SDS011;67169;50.268;8.694;2023-07-09T13:27:36;7.13;;;3.45;;
77978;SDS011;67169;50.268;8.694;2023-07-09T13:30:05;4.30;;;2.42;;
77978;SDS011;67169;50.268;8.694;2023-07-09T13:32:33;4.07;;;2.90;;
77978;SDS011;67169;50.268;8.694;2023-07-09T13:35:00;5.63;;;2.25;;
77978;SDS011;67169;50.268;8.694;2023-07-09T13:37:26;4.63;;;2.72;;
77978;SDS011;67169;50.268;8.694;2023-07-09T13:39:53;5.40;;;2.80;;
77978;SDS011;67169;50.268;8.694;2023-07-09T13:42:19;4.55;;;2.70;;
77978;SDS011;67169;50.268;8.694;2023-07-09T13:44:46;9.20;;;3.50;;
77978;SDS011;67169;50.268;8.694;2023-07-09T13:47:17;6.25;;;2.90;;
77978;SDS011;67169;50.268;8.694;2023-07-09T13:49:45;7.28;;;3.05;;
77978;SDS011;67169;50.268;8.694;2023-07-09T13:52:14;4.53;;;2.45;;
77978;SDS011;67169;50.268;8.694;2023-07-09T13:54:43;4.63;;;2.35;;
77978;SDS011;67169;50.268;8.694;2023-07-09T13:57:13;5.43;;;3.10;;
77978;SDS011;67169;50.268;8.694;2023-07-09T13:59:42;4.68;;;2.80;;
77978;SDS011;67169;50.268;8.694;2023-07-09T14:02:19;5.97;;;2.92;;
77978;SDS011;67169;50.268;8.694;2023-07-09T14:04:49;5.40;;;3.05;;
77978;SDS011;67169;50.268;8.694;2023-07-09T14:07:26;4.28;;;2.50;;
77978;SDS011;67169;50.268;8.694;2023-07-09T14:09:56;7.55;;;3.00;;
77978;SDS011;67169;50.268;8.694;2023-07-09T14:12:23;6.28;;;2.58;;
77978;SDS011;67169;50.268;8.694;2023-07-09T14:14:51;4.60;;;2.60;;
77978;SDS011;67169;50.268;8.694;2023-07-09T14:17:20;3.95;;;2.38;;
77978;SDS011;67169;50.268;8.694;2023-07-09T14:19:48;5.50;;;2.75;;
77978;SDS011;67169;50.268;8.694;2023-07-09T14:22:20;5.03;;;2.72;;
77978;SDS011;67169;50.268;8.694;2023-07-09T14:24:49;4.85;;;3.22;;
77978;SDS011;67169;50.268;8.694;2023-07-09T14:27:16;4.68;;;2.90;;
77978;SDS011;67169;50.268;8.694;2023-07-09T14:29:43;8.45;;;2.80;;
77978;SDS011;67169;50.268;8.694;2023-07-09T14:32:16;4.57;;;2.80;;
77978;SDS011;67169;50.268;8.694;2023-07-09T14:34:57;4.90;;;2.80;;
77978;SDS011;67169;50.268;8.694;2023-07-09T14:37:23;4.68;;;2.67;;
77978;SDS011;67169;50.268;8.694;2023-07-09T14:39:51;8.43;;;3.10;;
77978;SDS011;67169;50.268;8.694;2023-07-09T14:42:18;5.15;;;3.08;;
77978;SDS011;67169;50.268;8.694;2023-07-09T14:44:47;4.82;;;2.60;;
77978;SDS011;67169;50.268;8.694;2023-07-09T14:47:14;5.88;;;2.88;;
77978;SDS011;67169;50.268;8.694;2023-07-09T14:49:44;6.15;;;2.88;;
77978;SDS011;67169;50.268;8.694;2023-07-09T14:52:11;4.00;;;2.72;;
77978;SDS011;67169;50.268;8.694;2023-07-09T14:54:39;5.07;;;2.92;;
77978;SDS011;67169;50.268;8.694;2023-07-09T14:57:08;5.22;;;3.10;;
77978;SDS011;67169;50.268;8.694;2023-07-09T14:59:43;6.07;;;3.33;;
77978;SDS011;67169;50.268;8.694;2023-07-09T15:02:15;3.63;;;2.45;;
77978;SDS011;67169;50.268;8.694;2023-07-09T15:04:49;5.03;;;2.75;;
77978;SDS011;67169;50.268;8.694;2023-07-09T15:07:16;4.63;;;2.60;;
77978;SDS011;67169;50.268;8.694;2023-07-09T15:09:42;5.40;;;2.67;;